createdAt,value
2017-04-02T00:00:01.046Z,854.99
2017-04-02T00:00:05.633Z,854.97
2017-04-02T00:00:09.824Z,854.96
2017-04-02T00:00:14.130Z,854.97
2017-04-02T00:00:18.566Z,854.93
2017-04-02T00:00:22.910Z,854.96
2017-04-02T00:00:27.218Z,854.95
2017-04-02T00:00:31.643Z,854.93
2017-04-02T00:00:36.073Z,854.93
2017-04-02T00:00:40.547Z,854.93
2017-04-02T00:00:44.978Z,854.91
2017-04-02T00:00:49.402Z,854.91
2017-04-02T00:00:53.831Z,854.92
2017-04-02T00:00:58.296Z,854.9
2017-04-02T00:01:02.723Z,854.82
2017-04-02T00:01:07.146Z,854.88
2017-04-02T00:01:11.568Z,854.87
2017-04-02T00:01:15.885Z,854.89
2017-04-02T00:01:20.309Z,854.88
2017-04-02T00:01:24.734Z,854.87
2017-04-02T00:01:29.043Z,854.83
2017-04-02T00:01:33.474Z,854.88
2017-04-02T00:01:37.896Z,854.83
2017-04-02T00:01:42.326Z,854.86
2017-04-02T00:01:46.639Z,854.84
2017-04-02T00:01:51.062Z,854.82
2017-04-02T00:01:55.367Z,854.83
2017-04-02T00:01:59.794Z,854.82
2017-04-02T00:02:04.476Z,854.85
2017-04-02T00:02:08.900Z,854.83
2017-04-02T00:02:13.327Z,854.8
2017-04-02T00:02:17.640Z,854.83
2017-04-02T00:02:22.063Z,854.81
2017-04-02T00:02:26.368Z,854.75
2017-04-02T00:02:30.796Z,854.77
2017-04-02T00:02:35.220Z,854.78
2017-04-02T00:02:39.641Z,854.76
2017-04-02T00:02:43.951Z,854.76
2017-04-02T00:02:48.377Z,854.73
2017-04-02T00:02:52.690Z,854.74
2017-04-02T00:02:57.112Z,854.76
2017-04-02T00:03:01.430Z,854.75
2017-04-02T00:03:05.746Z,854.69
2017-04-02T00:03:10.168Z,854.72
2017-04-02T00:03:14.596Z,854.71
2017-04-02T00:03:19.021Z,854.68
2017-04-02T00:03:23.328Z,854.7
2017-04-02T00:03:27.765Z,854.71
2017-04-02T00:03:32.194Z,854.69
2017-04-02T00:03:36.621Z,854.7
2017-04-02T00:03:41.049Z,854.67
2017-04-02T00:03:45.354Z,854.65
2017-04-02T00:03:49.784Z,854.68
2017-04-02T00:03:53.976Z,854.68
2017-04-02T00:03:58.411Z,854.66
2017-04-02T00:04:02.975Z,854.64
2017-04-02T00:04:07.397Z,854.63
2017-04-02T00:04:11.823Z,854.62
2017-04-02T00:04:16.248Z,854.63
2017-04-02T00:04:20.679Z,854.61
2017-04-02T00:04:25.101Z,854.64
2017-04-02T00:04:29.408Z,854.59
2017-04-02T00:04:33.831Z,854.6
2017-04-02T00:04:38.305Z,854.61
2017-04-02T00:04:42.727Z,854.58
2017-04-02T00:04:47.155Z,854.59
2017-04-02T00:04:51.627Z,854.56
2017-04-02T00:04:55.699Z,854.54
2017-04-02T00:05:00.128Z,854.53
2017-04-02T00:05:04.557Z,854.55
2017-04-02T00:05:08.910Z,854.53
2017-04-02T00:05:13.346Z,854.54
2017-04-02T00:05:17.657Z,854.57
2017-04-02T00:05:21.849Z,854.52
2017-04-02T00:05:26.299Z,854.49
2017-04-02T00:05:30.732Z,854.53
2017-04-02T00:05:34.933Z,854.49
2017-04-02T00:05:39.367Z,854.5
2017-04-02T00:05:43.566Z,854.52
2017-04-02T00:05:47.998Z,854.53
2017-04-02T00:05:52.313Z,854.51
2017-04-02T00:05:56.734Z,854.51
2017-04-02T00:06:01.169Z,854.46
2017-04-02T00:06:05.493Z,854.48
2017-04-02T00:06:09.921Z,854.48
2017-04-02T00:06:14.348Z,854.47
2017-04-02T00:06:18.587Z,854.45
2017-04-02T00:06:22.664Z,854.44
2017-04-02T00:06:26.877Z,854.42
2017-04-02T00:06:31.312Z,854.42
2017-04-02T00:06:35.504Z,854.35
2017-04-02T00:06:39.822Z,854.42
2017-04-02T00:06:44.271Z,854.41
2017-04-02T00:06:48.739Z,854.4
2017-04-02T00:06:52.819Z,854.4
2017-04-02T00:06:56.896Z,854.37
2017-04-02T00:07:01.093Z,854.32
2017-04-02T00:07:05.532Z,854.31
2017-04-02T00:07:09.735Z,854.38
2017-04-02T00:07:14.165Z,854.37
2017-04-02T00:07:18.608Z,854.38
2017-04-02T00:07:22.928Z,854.34
2017-04-02T00:07:27.355Z,854.3
2017-04-02T00:07:31.786Z,854.35
2017-04-02T00:07:36.109Z,854.36
2017-04-02T00:07:40.446Z,854.31
2017-04-02T00:07:44.885Z,854.31
2017-04-02T00:07:49.206Z,854.3
2017-04-02T00:07:53.401Z,854.25
2017-04-02T00:07:57.849Z,854.3
2017-04-02T00:08:02.579Z,854.26
2017-04-02T00:08:06.899Z,854.28
2017-04-02T00:08:11.227Z,854.23
2017-04-02T00:08:15.541Z,854.24
2017-04-02T00:08:19.737Z,854.24
2017-04-02T00:08:24.098Z,854.22
2017-04-02T00:08:28.421Z,854.24
2017-04-02T00:08:32.843Z,854.22
2017-04-02T00:08:37.272Z,854.21
2017-04-02T00:08:41.707Z,854.16
2017-04-02T00:08:46.136Z,854.21
2017-04-02T00:08:50.563Z,854.13
2017-04-02T00:08:54.875Z,854.15
2017-04-02T00:08:59.191Z,854.16
2017-04-02T00:09:03.398Z,854.15
2017-04-02T00:09:07.829Z,854.12
2017-04-02T00:09:12.256Z,854.15
2017-04-02T00:09:16.575Z,854.05
2017-04-02T00:09:20.779Z,854.07
2017-04-02T00:09:25.092Z,854.03
2017-04-02T00:09:29.413Z,854.03
2017-04-02T00:09:33.609Z,854.04
2017-04-02T00:09:37.918Z,854.06
2017-04-02T00:09:42.116Z,854.04
2017-04-02T00:09:46.392Z,854.04
2017-04-02T00:09:50.710Z,854.04
2017-04-02T00:09:55.032Z,854.02
2017-04-02T00:09:59.468Z,853.97
2017-04-02T00:10:03.776Z,853.94
2017-04-02T00:10:07.968Z,853.98
2017-04-02T00:10:12.280Z,853.97
2017-04-02T00:10:16.363Z,853.95
2017-04-02T00:10:20.799Z,853.94
2017-04-02T00:10:25.125Z,853.97
2017-04-02T00:10:29.551Z,853.95
2017-04-02T00:10:33.981Z,853.95
2017-04-02T00:10:38.340Z,853.91
2017-04-02T00:10:42.775Z,853.85
2017-04-02T00:10:47.085Z,853.88
2017-04-02T00:10:51.542Z,853.92
2017-04-02T00:10:55.966Z,853.87
2017-04-02T00:11:00.393Z,853.81
2017-04-02T00:11:05.121Z,853.83
2017-04-02T00:11:09.323Z,853.84
2017-04-02T00:11:13.510Z,853.82
2017-04-02T00:11:17.936Z,853.8
2017-04-02T00:11:22.364Z,853.75
2017-04-02T00:11:26.558Z,853.77
2017-04-02T00:11:30.865Z,853.75
2017-04-02T00:11:35.172Z,853.79
2017-04-02T00:11:39.610Z,853.69
2017-04-02T00:11:43.960Z,853.69
2017-04-02T00:11:48.383Z,853.74
2017-04-02T00:11:52.821Z,853.7
2017-04-02T00:11:57.177Z,853.7
2017-04-02T00:12:01.748Z,853.71
2017-04-02T00:12:06.064Z,853.67
2017-04-02T00:12:10.368Z,853.67
2017-04-02T00:12:14.791Z,853.66
2017-04-02T00:12:19.211Z,853.65
2017-04-02T00:12:23.674Z,853.66
2017-04-02T00:12:28.119Z,853.63
2017-04-02T00:12:32.545Z,853.6
2017-04-02T00:12:36.737Z,853.59
2017-04-02T00:12:41.173Z,853.58
2017-04-02T00:12:45.601Z,853.56
2017-04-02T00:12:50.021Z,853.56
2017-04-02T00:12:54.216Z,853.51
2017-04-02T00:12:58.644Z,853.53
2017-04-02T00:13:03.421Z,853.52
2017-04-02T00:13:07.729Z,853.53
2017-04-02T00:13:12.152Z,853.49
2017-04-02T00:13:16.577Z,853.47
2017-04-02T00:13:21.002Z,853.49
2017-04-02T00:13:25.425Z,853.44
2017-04-02T00:13:29.851Z,853.44
2017-04-02T00:13:34.161Z,853.46
2017-04-02T00:13:38.584Z,853.44
2017-04-02T00:13:43.007Z,853.36
2017-04-02T00:13:47.202Z,853.4
2017-04-02T00:13:51.270Z,853.4
2017-04-02T00:13:55.463Z,853.4
2017-04-02T00:13:59.890Z,853.38
2017-04-02T00:14:04.614Z,853.37
2017-04-02T00:14:09.037Z,853.35
2017-04-02T00:14:13.464Z,853.34
2017-04-02T00:14:17.805Z,853.34
2017-04-02T00:14:22.110Z,853.34
2017-04-02T00:14:26.554Z,853.33
2017-04-02T00:14:30.979Z,853.31
2017-04-02T00:14:35.433Z,853.31
2017-04-02T00:14:39.738Z,853.25
2017-04-02T00:14:44.160Z,853.28
2017-04-02T00:14:48.602Z,853.29
2017-04-02T00:14:53.024Z,853.28
2017-04-02T00:14:57.448Z,853.24
2017-04-02T00:15:01.934Z,853.24
2017-04-02T00:15:06.358Z,853.22
2017-04-02T00:15:10.785Z,853.2
2017-04-02T00:15:15.216Z,853.21
2017-04-02T00:15:19.642Z,853.18
2017-04-02T00:15:24.081Z,853.18
2017-04-02T00:15:28.505Z,853.14
2017-04-02T00:15:32.930Z,853.19
2017-04-02T00:15:37.241Z,853.1
2017-04-02T00:15:41.671Z,853.07
2017-04-02T00:15:46.097Z,853.1
2017-04-02T00:15:50.300Z,853.11
2017-04-02T00:15:54.729Z,853.1
2017-04-02T00:15:59.156Z,853.1
2017-04-02T00:16:03.831Z,853.08
2017-04-02T00:16:08.260Z,853.1
2017-04-02T00:16:12.717Z,853.03
2017-04-02T00:16:17.023Z,853.03
2017-04-02T00:16:21.452Z,853.07
2017-04-02T00:16:25.880Z,853.07
2017-04-02T00:16:30.182Z,852.98
2017-04-02T00:16:34.493Z,853.02
2017-04-02T00:16:38.678Z,853.02
2017-04-02T00:16:43.001Z,853
2017-04-02T00:16:47.425Z,852.97
2017-04-02T00:16:51.739Z,852.97
2017-04-02T00:16:56.063Z,853.01
2017-04-02T00:17:00.491Z,852.95
2017-04-02T00:17:04.679Z,852.95
2017-04-02T00:17:08.993Z,852.97
2017-04-02T00:17:13.443Z,852.96
2017-04-02T00:17:17.868Z,852.96
2017-04-02T00:17:22.287Z,852.94
2017-04-02T00:17:26.469Z,852.92
2017-04-02T00:17:30.902Z,852.92
2017-04-02T00:17:35.336Z,852.86
2017-04-02T00:17:39.755Z,852.85
2017-04-02T00:17:44.174Z,852.84
2017-04-02T00:17:48.601Z,852.8
2017-04-02T00:17:53.031Z,852.88
2017-04-02T00:17:57.341Z,852.85
2017-04-02T00:18:01.768Z,852.83
2017-04-02T00:18:06.239Z,852.79
2017-04-02T00:18:10.555Z,852.83
2017-04-02T00:18:14.856Z,852.82
2017-04-02T00:18:19.283Z,852.81
2017-04-02T00:18:24.007Z,852.79
2017-04-02T00:18:28.431Z,852.8
2017-04-02T00:18:32.853Z,852.79
2017-04-02T00:18:37.277Z,852.74
2017-04-02T00:18:41.707Z,852.74
2017-04-02T00:18:46.126Z,852.75
2017-04-02T00:18:50.549Z,852.73
2017-04-02T00:18:54.744Z,852.7
2017-04-02T00:18:59.209Z,852.69
2017-04-02T00:19:03.767Z,852.69
2017-04-02T00:19:08.194Z,852.69
2017-04-02T00:19:12.620Z,852.66
2017-04-02T00:19:17.048Z,852.68
2017-04-02T00:19:21.473Z,852.67
2017-04-02T00:19:25.891Z,852.66
2017-04-02T00:19:30.318Z,852.63
2017-04-02T00:19:34.625Z,852.66
2017-04-02T00:19:39.048Z,852.59
2017-04-02T00:19:43.481Z,852.62
2017-04-02T00:19:47.916Z,852.62
2017-04-02T00:19:52.345Z,852.57
2017-04-02T00:19:56.769Z,852.56
2017-04-02T00:20:01.192Z,852.56
2017-04-02T00:20:05.622Z,852.59
2017-04-02T00:20:09.937Z,852.58
2017-04-02T00:20:14.363Z,852.54
2017-04-02T00:20:18.669Z,852.53
2017-04-02T00:20:22.976Z,852.54
2017-04-02T00:20:27.408Z,852.53
2017-04-02T00:20:31.832Z,852.53
2017-04-02T00:20:36.148Z,852.53
2017-04-02T00:20:40.458Z,852.52
2017-04-02T00:20:44.881Z,852.49
2017-04-02T00:20:49.310Z,852.51
2017-04-02T00:20:53.731Z,852.49
2017-04-02T00:20:58.036Z,852.49
2017-04-02T00:21:02.460Z,852.49
2017-04-02T00:21:06.926Z,852.45
2017-04-02T00:21:11.231Z,852.44
2017-04-02T00:21:15.663Z,852.38
2017-04-02T00:21:20.089Z,852.38
2017-04-02T00:21:24.518Z,852.34
2017-04-02T00:21:28.704Z,852.43
2017-04-02T00:21:33.130Z,852.41
2017-04-02T00:21:37.562Z,852.42
2017-04-02T00:21:42.005Z,852.41
2017-04-02T00:21:46.426Z,852.34
2017-04-02T00:21:50.854Z,852.34
2017-04-02T00:21:54.929Z,852.38
2017-04-02T00:21:59.360Z,852.4
2017-04-02T00:22:03.674Z,852.36
2017-04-02T00:22:07.983Z,852.37
2017-04-02T00:22:12.409Z,852.3
2017-04-02T00:22:16.723Z,852.37
2017-04-02T00:22:21.150Z,852.34
2017-04-02T00:22:25.456Z,852.31
2017-04-02T00:22:29.881Z,852.28
2017-04-02T00:22:34.358Z,852.3
2017-04-02T00:22:38.668Z,852.28
2017-04-02T00:22:42.857Z,852.32
2017-04-02T00:22:47.287Z,852.31
2017-04-02T00:22:51.709Z,852.32
2017-04-02T00:22:56.133Z,852.26
2017-04-02T00:23:00.567Z,852.23
2017-04-02T00:23:05.191Z,852.3
2017-04-02T00:23:09.613Z,852.25
2017-04-02T00:23:14.038Z,852.24
2017-04-02T00:23:18.470Z,852.23
2017-04-02T00:23:22.890Z,852.21
2017-04-02T00:23:27.320Z,852.24
2017-04-02T00:23:31.632Z,852.24
2017-04-02T00:23:35.939Z,852.14
2017-04-02T00:23:40.362Z,852.15
2017-04-02T00:23:44.783Z,852.17
2017-04-02T00:23:49.097Z,852.19
2017-04-02T00:23:53.286Z,852.21
2017-04-02T00:23:57.596Z,852.21
2017-04-02T00:24:01.926Z,852.17
2017-04-02T00:24:06.355Z,852.15
2017-04-02T00:24:10.666Z,852.15
2017-04-02T00:24:15.143Z,852.21
2017-04-02T00:24:19.447Z,852.17
2017-04-02T00:24:23.865Z,852.09
2017-04-02T00:24:28.169Z,852.15
2017-04-02T00:24:32.523Z,852.15
2017-04-02T00:24:36.836Z,852.14
2017-04-02T00:24:41.262Z,852.16
2017-04-02T00:24:45.691Z,852.11
2017-04-02T00:24:50.131Z,852.11
2017-04-02T00:24:54.326Z,852.1
2017-04-02T00:24:58.748Z,852.08
2017-04-02T00:25:03.182Z,852.05
2017-04-02T00:25:07.494Z,852.1
2017-04-02T00:25:11.917Z,852.08
2017-04-02T00:25:16.341Z,852.09
2017-04-02T00:25:20.535Z,852.03
2017-04-02T00:25:24.857Z,852.05
2017-04-02T00:25:29.300Z,852.08
2017-04-02T00:25:33.720Z,852.07
2017-04-02T00:25:38.032Z,852.09
2017-04-02T00:25:42.338Z,852.06
2017-04-02T00:25:46.767Z,852.07
2017-04-02T00:25:51.192Z,851.99
2017-04-02T00:25:55.386Z,852.05
2017-04-02T00:25:59.699Z,852
2017-04-02T00:26:04.133Z,852.07
2017-04-02T00:26:08.558Z,852.07
2017-04-02T00:26:12.983Z,852.03
2017-04-02T00:26:17.411Z,852.07
2017-04-02T00:26:21.761Z,851.99
2017-04-02T00:26:26.082Z,852.07
2017-04-02T00:26:30.392Z,852.02
2017-04-02T00:26:34.815Z,852.04
2017-04-02T00:26:39.246Z,852.03
2017-04-02T00:26:43.669Z,851.97
2017-04-02T00:26:48.092Z,852.05
2017-04-02T00:26:52.565Z,851.99
2017-04-02T00:26:56.998Z,852.01
2017-04-02T00:27:01.429Z,852.03
2017-04-02T00:27:06.006Z,851.96
2017-04-02T00:27:10.461Z,851.95
2017-04-02T00:27:14.887Z,851.98
2017-04-02T00:27:19.309Z,851.97
2017-04-02T00:27:23.739Z,851.95
2017-04-02T00:27:28.165Z,851.99
2017-04-02T00:27:32.588Z,851.95
2017-04-02T00:27:37.009Z,851.97
2017-04-02T00:27:41.432Z,851.98
2017-04-02T00:27:45.856Z,851.93
2017-04-02T00:27:50.275Z,851.95
2017-04-02T00:27:54.699Z,851.91
2017-04-02T00:27:59.027Z,851.94
2017-04-02T00:28:03.383Z,851.94
2017-04-02T00:28:07.807Z,851.94
2017-04-02T00:28:12.241Z,851.92
2017-04-02T00:28:16.712Z,851.94
2017-04-02T00:28:21.025Z,851.94
2017-04-02T00:28:25.648Z,851.92
2017-04-02T00:28:29.955Z,851.9
2017-04-02T00:28:34.381Z,851.9
2017-04-02T00:28:38.804Z,851.92
2017-04-02T00:28:43.115Z,851.9
2017-04-02T00:28:47.422Z,851.88
2017-04-02T00:28:51.731Z,851.88
2017-04-02T00:28:56.153Z,851.89
2017-04-02T00:29:00.592Z,851.88
2017-04-02T00:29:04.899Z,851.91
2017-04-02T00:29:09.328Z,851.89
2017-04-02T00:29:13.758Z,851.88
2017-04-02T00:29:18.178Z,851.88
2017-04-02T00:29:22.601Z,851.91
2017-04-02T00:29:26.912Z,851.9
2017-04-02T00:29:31.337Z,851.9
2017-04-02T00:29:35.649Z,851.88
2017-04-02T00:29:39.957Z,851.86
2017-04-02T00:29:44.381Z,851.81
2017-04-02T00:29:48.811Z,851.84
2017-04-02T00:29:53.233Z,851.83
2017-04-02T00:29:57.536Z,851.85
2017-04-02T00:30:01.856Z,851.87
2017-04-02T00:30:06.043Z,851.83
2017-04-02T00:30:10.358Z,851.84
2017-04-02T00:30:14.672Z,851.84
2017-04-02T00:30:19.099Z,851.83
2017-04-02T00:30:23.407Z,851.81
2017-04-02T00:30:27.732Z,851.77
2017-04-02T00:30:32.158Z,851.84
2017-04-02T00:30:36.471Z,851.8
2017-04-02T00:30:40.896Z,851.76
2017-04-02T00:30:45.331Z,851.8
2017-04-02T00:30:49.645Z,851.83
2017-04-02T00:30:54.074Z,851.83
2017-04-02T00:30:58.502Z,851.8
2017-04-02T00:31:02.699Z,851.81
2017-04-02T00:31:07.130Z,851.79
2017-04-02T00:31:11.562Z,851.8
2017-04-02T00:31:15.987Z,851.79
2017-04-02T00:31:20.418Z,851.79
2017-04-02T00:31:24.862Z,851.79
2017-04-02T00:31:29.290Z,851.79
2017-04-02T00:31:33.603Z,851.76
2017-04-02T00:31:38.030Z,851.78
2017-04-02T00:31:42.341Z,851.75
2017-04-02T00:31:46.772Z,851.78
2017-04-02T00:31:50.996Z,851.8
2017-04-02T00:31:55.189Z,851.78
2017-04-02T00:31:59.619Z,851.79
2017-04-02T00:32:04.150Z,851.76
2017-04-02T00:32:08.342Z,851.76
2017-04-02T00:32:12.540Z,851.73
2017-04-02T00:32:16.963Z,851.72
2017-04-02T00:32:21.392Z,851.76
2017-04-02T00:32:25.819Z,851.77
2017-04-02T00:32:30.131Z,851.76
2017-04-02T00:32:34.557Z,851.76
2017-04-02T00:32:38.976Z,851.77
2017-04-02T00:32:43.397Z,851.75
2017-04-02T00:32:47.831Z,851.78
2017-04-02T00:32:52.016Z,851.78
2017-04-02T00:32:56.439Z,851.75
2017-04-02T00:33:00.876Z,851.77
2017-04-02T00:33:04.950Z,851.73
2017-04-02T00:33:09.374Z,851.72
2017-04-02T00:33:13.802Z,851.77
2017-04-02T00:33:18.239Z,851.72
2017-04-02T00:33:22.663Z,851.71
2017-04-02T00:33:27.103Z,851.7
2017-04-02T00:33:31.414Z,851.68
2017-04-02T00:33:35.839Z,851.74
2017-04-02T00:33:40.262Z,851.69
2017-04-02T00:33:44.688Z,851.72
2017-04-02T00:33:48.996Z,851.7
2017-04-02T00:33:53.299Z,851.65
2017-04-02T00:33:57.723Z,851.65
2017-04-02T00:34:02.150Z,851.71
2017-04-02T00:34:06.337Z,851.71
2017-04-02T00:34:10.763Z,851.73
2017-04-02T00:34:15.188Z,851.69
2017-04-02T00:34:19.613Z,851.68
2017-04-02T00:34:24.051Z,851.73
2017-04-02T00:34:28.519Z,851.69
2017-04-02T00:34:32.943Z,851.73
2017-04-02T00:34:37.256Z,851.73
2017-04-02T00:34:41.566Z,851.71
2017-04-02T00:34:46.024Z,851.7
2017-04-02T00:34:50.332Z,851.7
2017-04-02T00:34:54.637Z,851.72
2017-04-02T00:34:59.072Z,851.72
2017-04-02T00:35:03.243Z,851.71
2017-04-02T00:35:07.556Z,851.7
2017-04-02T00:35:11.985Z,851.69
2017-04-02T00:35:16.410Z,851.69
2017-04-02T00:35:20.714Z,851.7
2017-04-02T00:35:25.140Z,851.68
2017-04-02T00:35:29.569Z,851.71
2017-04-02T00:35:33.994Z,851.72
2017-04-02T00:35:38.182Z,851.72
2017-04-02T00:35:42.610Z,851.66
2017-04-02T00:35:47.082Z,851.69
2017-04-02T00:35:51.394Z,851.67
2017-04-02T00:35:55.585Z,851.68
2017-04-02T00:35:59.892Z,851.69
2017-04-02T00:36:04.625Z,851.69
2017-04-02T00:36:08.816Z,851.7
2017-04-02T00:36:13.241Z,851.7
2017-04-02T00:36:17.671Z,851.69
2017-04-02T00:36:21.976Z,851.68
2017-04-02T00:36:26.405Z,851.69
2017-04-02T00:36:30.839Z,851.7
2017-04-02T00:36:35.030Z,851.65
2017-04-02T00:36:39.454Z,851.67
2017-04-02T00:36:43.878Z,851.69
2017-04-02T00:36:48.192Z,851.67
2017-04-02T00:36:52.623Z,851.65
2017-04-02T00:36:56.811Z,851.66
2017-04-02T00:37:01.119Z,851.67
2017-04-02T00:37:05.485Z,851.64
2017-04-02T00:37:09.919Z,851.65
2017-04-02T00:37:14.342Z,851.66
2017-04-02T00:37:18.781Z,851.66
2017-04-02T00:37:23.208Z,851.62
2017-04-02T00:37:27.519Z,851.63
2017-04-02T00:37:31.822Z,851.61
2017-04-02T00:37:36.246Z,851.63
2017-04-02T00:37:40.581Z,851.61
2017-04-02T00:37:44.885Z,851.6
2017-04-02T00:37:49.191Z,851.55
2017-04-02T00:37:53.503Z,851.59
2017-04-02T00:37:57.920Z,851.62
2017-04-02T00:38:02.342Z,851.6
2017-04-02T00:38:06.764Z,851.6
2017-04-02T00:38:11.195Z,851.59
2017-04-02T00:38:15.660Z,851.6
2017-04-02T00:38:20.083Z,851.58
2017-04-02T00:38:24.505Z,851.56
2017-04-02T00:38:28.821Z,851.55
2017-04-02T00:38:33.278Z,851.58
2017-04-02T00:38:37.697Z,851.58
2017-04-02T00:38:42.008Z,851.54
2017-04-02T00:38:46.078Z,851.53
2017-04-02T00:38:50.393Z,851.56
2017-04-02T00:38:54.579Z,851.53
2017-04-02T00:38:59.016Z,851.53
2017-04-02T00:39:03.635Z,851.52
2017-04-02T00:39:08.061Z,851.52
2017-04-02T00:39:12.487Z,851.55
2017-04-02T00:39:16.916Z,851.54
2017-04-02T00:39:21.337Z,851.51
2017-04-02T00:39:25.757Z,851.52
2017-04-02T00:39:30.177Z,851.47
2017-04-02T00:39:34.526Z,851.49
2017-04-02T00:39:38.835Z,851.52
2017-04-02T00:39:43.021Z,851.49
2017-04-02T00:39:47.329Z,851.49
2017-04-02T00:39:51.754Z,851.46
2017-04-02T00:39:56.181Z,851.46
2017-04-02T00:40:00.608Z,851.46
2017-04-02T00:40:04.916Z,851.46
2017-04-02T00:40:09.341Z,851.44
2017-04-02T00:40:13.536Z,851.44
2017-04-02T00:40:17.843Z,851.4
2017-04-02T00:40:22.271Z,851.47
2017-04-02T00:40:26.694Z,851.48
2017-04-02T00:40:31.119Z,851.45
2017-04-02T00:40:35.461Z,851.36
2017-04-02T00:40:39.888Z,851.48
2017-04-02T00:40:44.307Z,851.5
2017-04-02T00:40:48.503Z,851.47
2017-04-02T00:40:52.808Z,851.48
2017-04-02T00:40:57.230Z,851.48
2017-04-02T00:41:01.667Z,851.45
2017-04-02T00:41:06.145Z,851.45
2017-04-02T00:41:10.570Z,851.48
2017-04-02T00:41:14.997Z,851.43
2017-04-02T00:41:19.460Z,851.43
2017-04-02T00:41:23.889Z,851.45
2017-04-02T00:41:28.195Z,851.44
2017-04-02T00:41:32.622Z,851.45
2017-04-02T00:41:36.940Z,851.44
2017-04-02T00:41:41.247Z,851.42
2017-04-02T00:41:45.555Z,851.38
2017-04-02T00:41:49.982Z,851.39
2017-04-02T00:41:54.418Z,851.44
2017-04-02T00:41:58.761Z,851.41
2017-04-02T00:42:03.234Z,851.42
2017-04-02T00:42:07.548Z,851.37
2017-04-02T00:42:12.019Z,851.4
2017-04-02T00:42:16.446Z,851.4
2017-04-02T00:42:20.754Z,851.42
2017-04-02T00:42:25.186Z,851.41
2017-04-02T00:42:29.613Z,851.43
2017-04-02T00:42:34.040Z,851.38
2017-04-02T00:42:38.464Z,851.39
2017-04-02T00:42:42.663Z,851.4
2017-04-02T00:42:47.086Z,851.38
2017-04-02T00:42:51.395Z,851.34
2017-04-02T00:42:55.823Z,851.4
2017-04-02T00:43:00.149Z,851.37
2017-04-02T00:43:04.571Z,851.36
2017-04-02T00:43:08.994Z,851.35
2017-04-02T00:43:13.426Z,851.36
2017-04-02T00:43:17.848Z,851.33
2017-04-02T00:43:22.270Z,851.34
2017-04-02T00:43:26.693Z,851.33
2017-04-02T00:43:30.971Z,851.34
2017-04-02T00:43:35.399Z,851.32
2017-04-02T00:43:39.824Z,851.32
2017-04-02T00:43:44.125Z,851.33
2017-04-02T00:43:48.547Z,851.29
2017-04-02T00:43:52.860Z,851.34
2017-04-02T00:43:57.282Z,851.29
2017-04-02T00:44:01.471Z,851.33
2017-04-02T00:44:06.096Z,851.3
2017-04-02T00:44:10.448Z,851.34
2017-04-02T00:44:14.757Z,851.33
2017-04-02T00:44:19.185Z,851.32
2017-04-02T00:44:23.642Z,851.31
2017-04-02T00:44:27.942Z,851.3
2017-04-02T00:44:32.366Z,851.27
2017-04-02T00:44:36.676Z,851.28
2017-04-02T00:44:41.015Z,851.27
2017-04-02T00:44:45.446Z,851.29
2017-04-02T00:44:49.750Z,851.19
2017-04-02T00:44:54.059Z,851.24
2017-04-02T00:44:58.376Z,851.25
2017-04-02T00:45:02.687Z,851.26
2017-04-02T00:45:07.006Z,851.26
2017-04-02T00:45:11.442Z,851.23
2017-04-02T00:45:15.865Z,851.26
2017-04-02T00:45:20.293Z,851.23
2017-04-02T00:45:24.717Z,851.23
2017-04-02T00:45:29.023Z,851.26
2017-04-02T00:45:33.339Z,851.25
2017-04-02T00:45:37.533Z,851.24
2017-04-02T00:45:41.838Z,851.19
2017-04-02T00:45:46.148Z,851.23
2017-04-02T00:45:50.453Z,851.25
2017-04-02T00:45:54.878Z,851.22
2017-04-02T00:45:59.186Z,851.17
2017-04-02T00:46:03.541Z,851.21
2017-04-02T00:46:07.976Z,851.19
2017-04-02T00:46:12.452Z,851.19
2017-04-02T00:46:16.877Z,851.18
2017-04-02T00:46:21.310Z,851.21
2017-04-02T00:46:25.525Z,851.17
2017-04-02T00:46:29.964Z,851.2
2017-04-02T00:46:34.392Z,851.19
2017-04-02T00:46:38.815Z,851.19
2017-04-02T00:46:43.124Z,851.16
2017-04-02T00:46:47.598Z,851.17
2017-04-02T00:46:51.903Z,851.12
2017-04-02T00:46:56.209Z,851.12
2017-04-02T00:47:00.629Z,851.15
2017-04-02T00:47:05.046Z,851.15
2017-04-02T00:47:09.473Z,851.13
2017-04-02T00:47:13.779Z,851.17
2017-04-02T00:47:18.199Z,851.17
2017-04-02T00:47:22.629Z,851.14
2017-04-02T00:47:27.070Z,851.16
2017-04-02T00:47:31.499Z,851.16
2017-04-02T00:47:35.918Z,851.13
2017-04-02T00:47:40.232Z,851.08
2017-04-02T00:47:44.659Z,851.08
2017-04-02T00:47:49.081Z,851.08
2017-04-02T00:47:53.515Z,851.08
2017-04-02T00:47:57.835Z,851.11
2017-04-02T00:48:02.140Z,851.11
2017-04-02T00:48:06.450Z,851.1
2017-04-02T00:48:10.794Z,851.09
2017-04-02T00:48:15.104Z,851.1
2017-04-02T00:48:19.525Z,851.09
2017-04-02T00:48:23.953Z,851.08
2017-04-02T00:48:28.375Z,851.09
2017-04-02T00:48:32.928Z,851.12
2017-04-02T00:48:37.235Z,851.11
2017-04-02T00:48:41.663Z,851.11
2017-04-02T00:48:46.011Z,851.08
2017-04-02T00:48:50.436Z,851.08
2017-04-02T00:48:54.741Z,851.05
2017-04-02T00:48:59.167Z,851.08
2017-04-02T00:49:03.363Z,851.06
2017-04-02T00:49:07.816Z,851.04
2017-04-02T00:49:12.236Z,851.05
2017-04-02T00:49:16.665Z,851.02
2017-04-02T00:49:21.090Z,851.05
2017-04-02T00:49:25.526Z,851.07
2017-04-02T00:49:29.994Z,851.04
2017-04-02T00:49:34.186Z,851.02
2017-04-02T00:49:38.492Z,851.04
2017-04-02T00:49:42.798Z,851.03
2017-04-02T00:49:47.230Z,851.04
2017-04-02T00:49:51.342Z,851.04
2017-04-02T00:49:55.528Z,851.01
2017-04-02T00:49:59.841Z,851.04
2017-04-02T00:50:04.372Z,851.02
2017-04-02T00:50:08.680Z,851.03
2017-04-02T00:50:12.992Z,851.02
2017-04-02T00:50:17.426Z,850.99
2017-04-02T00:50:21.740Z,850.98
2017-04-02T00:50:26.049Z,850.97
2017-04-02T00:50:30.479Z,851.01
2017-04-02T00:50:34.786Z,850.98
2017-04-02T00:50:39.097Z,851
2017-04-02T00:50:43.521Z,850.96
2017-04-02T00:50:47.831Z,850.99
2017-04-02T00:50:52.262Z,850.97
2017-04-02T00:50:56.683Z,850.97
2017-04-02T00:51:01.001Z,851.01
2017-04-02T00:51:05.435Z,850.94
2017-04-02T00:51:09.863Z,850.99
2017-04-02T00:51:14.287Z,851
2017-04-02T00:51:18.608Z,850.96
2017-04-02T00:51:22.924Z,850.98
2017-04-02T00:51:27.113Z,850.96
2017-04-02T00:51:31.431Z,850.99
2017-04-02T00:51:35.862Z,850.97
2017-04-02T00:51:40.285Z,850.96
2017-04-02T00:51:44.712Z,850.99
2017-04-02T00:51:49.138Z,850.95
2017-04-02T00:51:53.609Z,850.96
2017-04-02T00:51:57.918Z,850.91
2017-04-02T00:52:02.221Z,850.93
2017-04-02T00:52:06.409Z,850.94
2017-04-02T00:52:10.718Z,850.9
2017-04-02T00:52:15.143Z,850.9
2017-04-02T00:52:19.324Z,850.9
2017-04-02T00:52:23.765Z,850.91
2017-04-02T00:52:28.195Z,850.93
2017-04-02T00:52:32.619Z,850.91
2017-04-02T00:52:37.039Z,850.89
2017-04-02T00:52:41.475Z,850.89
2017-04-02T00:52:45.795Z,850.87
2017-04-02T00:52:50.220Z,850.88
2017-04-02T00:52:54.535Z,850.89
2017-04-02T00:52:58.851Z,850.87
2017-04-02T00:53:03.517Z,850.84
2017-04-02T00:53:07.946Z,850.86
2017-04-02T00:53:12.251Z,850.83
2017-04-02T00:53:16.677Z,850.89
2017-04-02T00:53:20.983Z,850.87
2017-04-02T00:53:25.286Z,850.85
2017-04-02T00:53:29.590Z,850.85
2017-04-02T00:53:34.018Z,850.85
2017-04-02T00:53:38.440Z,850.88
2017-04-02T00:53:42.862Z,850.88
2017-04-02T00:53:47.297Z,850.87
2017-04-02T00:53:51.714Z,850.87
2017-04-02T00:53:55.900Z,850.84
2017-04-02T00:54:00.226Z,850.87
2017-04-02T00:54:04.681Z,850.84
2017-04-02T00:54:08.992Z,850.84
2017-04-02T00:54:13.412Z,850.78
2017-04-02T00:54:17.721Z,850.78
2017-04-02T00:54:22.144Z,850.86
2017-04-02T00:54:26.451Z,850.83
2017-04-02T00:54:30.882Z,850.82
2017-04-02T00:54:35.319Z,850.81
2017-04-02T00:54:39.634Z,850.8
2017-04-02T00:54:43.940Z,850.8
2017-04-02T00:54:48.243Z,850.82